createdAt,value
2022-09-09T00:00:19.776Z,100598.49
2022-09-09T00:03:36.138Z,100597.34
2022-09-09T00:06:29.525Z,100605.63
2022-09-09T00:09:19.487Z,100606.36
2022-09-09T00:12:13.719Z,100603.09
2022-09-09T00:15:08.894Z,100601.94
2022-09-09T00:18:04.542Z,100606.73
2022-09-09T00:20:59.459Z,100601.25
2022-09-09T00:23:51.976Z,100596.09
2022-09-09T00:26:47.051Z,100602.78
2022-09-09T00:29:44.611Z,100597.88
2022-09-09T00:32:36.589Z,100598.36
2022-09-09T00:35:26.234Z,100598.83
2022-09-09T00:38:18.561Z,100597.67
2022-09-09T00:41:15.405Z,100594.62
2022-09-09T00:44:19.318Z,100593.24
2022-09-09T00:47:20.561Z,100588.34
2022-09-09T00:50:27.543Z,100593.13
2022-09-09T00:53:29.720Z,100591.72
2022-09-09T00:56:22.169Z,100586.02
2022-09-09T00:59:28.511Z,100593.49
2022-09-09T01:02:28.536Z,100597.45
2022-09-09T01:05:28.458Z,100578.33
2022-09-09T01:08:34.762Z,100580.42
2022-09-09T01:11:26.618Z,100567.44
2022-09-09T01:14:28.722Z,100580.28
2022-09-09T01:17:23.763Z,100585.07
2022-09-09T01:20:28.718Z,100583.66
2022-09-09T01:23:43.319Z,100580.39
2022-09-09T01:26:47.593Z,100575.48
2022-09-09T01:29:47.248Z,100571.42
2022-09-09T01:32:46.249Z,100577.84
2022-09-09T01:35:43.553Z,100569.20
2022-09-09T01:38:34.728Z,100567.56
2022-09-09T01:41:24.529Z,100575.04
2022-09-09T01:44:22.969Z,100581.67
2022-09-09T01:47:11.931Z,100578.41
2022-09-09T01:50:23.008Z,100566.75
2022-09-09T01:53:13.155Z,100580.38
2022-09-09T01:56:12.805Z,100597.53
2022-09-09T01:59:18.968Z,100595.09
2022-09-09T02:02:18.599Z,100588.09
2022-09-09T02:05:25.358Z,100599.87
2022-09-09T02:08:20.854Z,100588.56
2022-09-09T02:11:16.838Z,100593.92
2022-09-09T02:14:13.528Z,100581.56
2022-09-09T02:17:10.487Z,100585.30
2022-09-09T02:20:19.717Z,100585.51
2022-09-09T02:23:17.895Z,100579.56
2022-09-09T02:26:08.698Z,100585.17
2022-09-09T02:29:02.100Z,100598.00
2022-09-09T02:31:52.365Z,100590.63
2022-09-09T02:34:46.636Z,100584.34
2022-09-09T02:37:37.022Z,100585.02
2022-09-09T02:40:26.346Z,100596.20
2022-09-09T02:43:22.730Z,100591.08
2022-09-09T02:46:27.254Z,100587.81
2022-09-09T02:49:24.761Z,100573.81
2022-09-09T02:52:17.114Z,100575.91
2022-09-09T02:55:13.460Z,100566.23
2022-09-09T02:58:05.005Z,100577.76
2022-09-09T03:00:54.663Z,100574.48
2022-09-09T03:03:44.978Z,100576.37
2022-09-09T03:06:36.395Z,100576.58
2022-09-09T03:09:33.755Z,100581.14
2022-09-09T03:12:22.716Z,100587.55
2022-09-09T03:15:12.090Z,100588.02
2022-09-09T03:18:01.654Z,100595.47
2022-09-09T03:20:51.847Z,100594.88
2022-09-09T03:23:41.067Z,100602.55
2022-09-09T03:26:31.194Z,100600.31
2022-09-09T03:29:21.181Z,100596.45
2022-09-09T03:32:11.368Z,100587.61
2022-09-09T03:35:00.752Z,100592.38
2022-09-09T03:37:50.318Z,100589.70
2022-09-09T03:40:39.886Z,100591.55
2022-09-09T03:43:29.467Z,100585.39
2022-09-09T03:46:18.711Z,100580.03
2022-09-09T03:49:07.584Z,100577.56
2022-09-09T03:51:56.956Z,100582.92
2022-09-09T03:54:46.119Z,100586.64
2022-09-09T03:57:36.359Z,100579.66
2022-09-09T04:00:25.676Z,100581.70
2022-09-09T04:03:14.432Z,100571.79
2022-09-09T04:06:05.208Z,100572.84
2022-09-09T04:08:56.038Z,100576.34
2022-09-09T04:11:46.023Z,100582.51
2022-09-09T04:14:35.608Z,100573.45
2022-09-09T04:17:25.375Z,100579.41
2022-09-09T04:20:14.134Z,100583.75
2022-09-09T04:23:02.886Z,100586.19
2022-09-09T04:25:53.278Z,100587.83
2022-09-09T04:28:42.239Z,100595.66
2022-09-09T04:31:42.231Z,100591.09
2022-09-09T04:34:32.036Z,100596.25
2022-09-09T04:37:20.997Z,100596.00
2022-09-09T04:40:12.059Z,100592.06
2022-09-09T04:43:04.037Z,100592.66
2022-09-09T04:45:54.280Z,100589.73
2022-09-09T04:48:45.961Z,100590.91
2022-09-09T04:51:34.810Z,100596.64
2022-09-09T04:54:23.386Z,100588.94
2022-09-09T04:57:18.486Z,100592.59
2022-09-09T05:00:11.493Z,100582.79
2022-09-09T05:03:09.262Z,100583.75
2022-09-09T05:06:05.114Z,100575.58
2022-09-09T05:08:54.533Z,100587.27
2022-09-09T05:11:46.814Z,100580.73
2022-09-09T05:14:58.709Z,100583.90
2022-09-09T05:17:47.670Z,100584.61
2022-09-09T05:20:37.452Z,100578.89
2022-09-09T05:23:26.615Z,100576.91
2022-09-09T05:26:18.233Z,100570.34
2022-09-09T05:29:08.836Z,100571.66
2022-09-09T05:31:57.689Z,100564.87
2022-09-09T05:34:47.366Z,100570.92
2022-09-09T05:37:36.944Z,100564.97
2022-09-09T05:40:27.134Z,100565.64
2022-09-09T05:43:15.889Z,100557.79
2022-09-09T05:46:09.298Z,100555.30
2022-09-09T05:48:58.937Z,100560.03
2022-09-09T05:51:51.369Z,100551.36
2022-09-09T05:54:42.183Z,100550.48
2022-09-09T05:57:30.723Z,100564.11
2022-09-09T06:00:22.348Z,100557.88
2022-09-09T06:03:14.059Z,100564.80
2022-09-09T06:06:06.210Z,100573.88
2022-09-09T06:08:54.958Z,100563.27
2022-09-09T06:11:44.333Z,100573.14
2022-09-09T06:14:33.700Z,100562.03
2022-09-09T06:17:22.864Z,100548.48
2022-09-09T06:20:14.096Z,100540.84
2022-09-09T06:23:04.450Z,100556.17
2022-09-09T06:26:01.348Z,100554.17
2022-09-09T06:28:53.366Z,100558.67
2022-09-09T06:31:42.463Z,100567.44
2022-09-09T06:34:50.007Z,100575.69
2022-09-09T06:37:39.787Z,100572.59
2022-09-09T06:40:28.744Z,100567.09
2022-09-09T06:43:19.263Z,100576.63
2022-09-09T06:46:13.675Z,100582.68
2022-09-09T06:49:03.002Z,100589.27
2022-09-09T06:51:54.164Z,100589.11
2022-09-09T06:54:44.809Z,100584.07
2022-09-09T06:57:37.334Z,100580.67
2022-09-09T07:00:30.963Z,100575.64
2022-09-09T07:03:21.112Z,100571.67
2022-09-09T07:06:15.359Z,100563.09
2022-09-09T07:09:07.613Z,100553.94
2022-09-09T07:12:00.239Z,100558.60
2022-09-09T07:14:51.081Z,100556.20
2022-09-09T07:17:40.450Z,100556.55
2022-09-09T07:20:29.618Z,100554.94
2022-09-09T07:23:18.373Z,100543.59
2022-09-09T07:26:12.862Z,100550.63
2022-09-09T07:29:02.678Z,100565.78
2022-09-09T07:31:52.221Z,100572.27
2022-09-09T07:34:46.501Z,100573.63
2022-09-09T07:37:37.065Z,100578.22
2022-09-09T07:40:25.857Z,100564.64
2022-09-09T07:43:17.482Z,100570.55
2022-09-09T07:46:07.725Z,100567.77
2022-09-09T07:48:58.674Z,100571.00
2022-09-09T07:51:50.505Z,100577.14
2022-09-09T07:54:40.485Z,100582.78
2022-09-09T07:57:31.290Z,100585.40
2022-09-09T08:00:22.262Z,100585.59
2022-09-09T08:03:12.944Z,100593.36
2022-09-09T08:06:04.108Z,100586.71
2022-09-09T08:08:55.470Z,100584.38
2022-09-09T08:11:45.100Z,100576.61
2022-09-09T08:14:34.265Z,100567.48
2022-09-09T08:17:23.842Z,100558.26
2022-09-09T08:20:14.237Z,100565.64
2022-09-09T08:23:05.444Z,100563.55
2022-09-09T08:25:54.202Z,100563.38
2022-09-09T08:28:43.778Z,100565.05
2022-09-09T08:31:35.195Z,100556.96
2022-09-09T08:34:23.128Z,100564.58
2022-09-09T08:37:15.164Z,100549.63
2022-09-09T08:40:19.610Z,100541.51
2022-09-09T08:43:09.059Z,100546.96
2022-09-09T08:46:05.832Z,100549.44
2022-09-09T08:49:02.603Z,100540.46
2022-09-09T08:51:52.530Z,100539.36
2022-09-09T08:54:52.138Z,100533.09
2022-09-09T08:57:44.807Z,100523.29
2022-09-09T09:00:43.538Z,100531.43
2022-09-09T09:03:42.575Z,100525.95
2022-09-09T09:06:45.436Z,100529.27
2022-09-09T09:09:44.043Z,100529.85
2022-09-09T09:12:39.976Z,100533.75
2022-09-09T09:15:37.125Z,100515.83
2022-09-09T09:18:27.922Z,100508.67
2022-09-09T09:21:24.157Z,100498.80
2022-09-09T09:24:21.981Z,100505.64
2022-09-09T09:27:15.450Z,100512.13
2022-09-09T09:30:29.915Z,100522.78
2022-09-09T09:33:27.964Z,100515.13
2022-09-09T09:36:17.590Z,100515.96
2022-09-09T09:42:23.133Z,100510.09
2022-09-09T09:45:22.575Z,100509.16
2022-09-09T09:48:14.551Z,100503.08
2022-09-09T09:51:11.136Z,100502.28
2022-09-09T09:54:24.466Z,100505.34
2022-09-09T09:57:18.114Z,100507.28
2022-09-09T10:00:17.874Z,100500.55
2022-09-09T10:03:25.556Z,100501.69
2022-09-09T10:06:15.740Z,100502.80
2022-09-09T10:09:24.024Z,100498.77
2022-09-09T10:12:26.839Z,100505.20
2022-09-09T10:15:39.983Z,100503.59
2022-09-09T10:18:47.172Z,100513.11
2022-09-09T10:21:58.434Z,100515.20
2022-09-09T10:25:22.622Z,100515.34
2022-09-09T10:28:31.801Z,100513.25
2022-09-09T10:31:29.278Z,100505.17
2022-09-09T10:34:32.510Z,100498.73
2022-09-09T10:37:36.013Z,100498.88
2022-09-09T10:40:32.757Z,100491.61
2022-09-09T10:43:47.523Z,100488.22
2022-09-09T10:46:47.546Z,100491.78
2022-09-09T10:50:00.255Z,100495.97
2022-09-09T10:53:02.123Z,100486.30
2022-09-09T10:55:57.841Z,100489.20
2022-09-09T10:58:50.191Z,100484.37
2022-09-09T11:01:45.667Z,100480.63
2022-09-09T11:04:41.317Z,100482.41
2022-09-09T11:07:38.649Z,100475.13
2022-09-09T11:10:35.750Z,100475.27
2022-09-09T11:13:32.133Z,100469.60
2022-09-09T11:16:28.214Z,100476.51
2022-09-09T11:19:24.205Z,100477.45
2022-09-09T11:22:26.886Z,100478.09
2022-09-09T11:25:20.986Z,100478.69
2022-09-09T11:28:42.084Z,100483.98
2022-09-09T11:31:46.035Z,100472.20
2022-09-09T11:34:50.108Z,100471.22
2022-09-09T11:38:18.555Z,100470.20
2022-09-09T11:41:10.564Z,100475.49
2022-09-09T11:43:59.380Z,100471.77
2022-09-09T11:46:52.530Z,100472.70
2022-09-09T11:49:46.255Z,100467.34
2022-09-09T11:52:42.769Z,100466.36
2022-09-09T11:55:34.050Z,100466.47
2022-09-09T11:58:24.866Z,100452.91
2022-09-09T12:01:28.162Z,100452.55
2022-09-09T12:04:33.806Z,100449.14
2022-09-09T12:07:32.244Z,100441.38
2022-09-09T12:10:28.389Z,100439.92
2022-09-09T12:13:23.334Z,100435.68
2022-09-09T12:16:32.042Z,100424.70
2022-09-09T12:19:26.445Z,100426.31
2022-09-09T12:22:29.070Z,100425.84
2022-09-09T12:25:31.344Z,100430.69
2022-09-09T12:28:23.249Z,100421.46
2022-09-09T12:31:18.398Z,100425.46
2022-09-09T12:34:16.429Z,100408.78
2022-09-09T12:37:14.884Z,100419.55
2022-09-09T12:40:06.947Z,100415.34
2022-09-09T12:42:55.876Z,100408.71
2022-09-09T12:45:45.898Z,100397.73
2022-09-09T12:48:38.345Z,100404.69
2022-09-09T12:51:30.713Z,100414.27
2022-09-09T12:54:20.340Z,100405.11
2022-09-09T12:57:14.959Z,100400.44
2022-09-09T13:00:15.235Z,100402.72
2022-09-09T13:03:17.303Z,100387.85
2022-09-09T13:06:20.212Z,100391.73
2022-09-09T13:09:12.285Z,100391.06
2022-09-09T13:12:07.942Z,100385.11
2022-09-09T13:14:58.134Z,100387.24
2022-09-09T13:17:50.653Z,100377.75
2022-09-09T13:20:46.908Z,100379.55
2022-09-09T13:23:38.493Z,100375.05
2022-09-09T13:26:29.863Z,100367.84
2022-09-09T13:29:20.344Z,100376.39
2022-09-09T13:32:18.431Z,100369.52
2022-09-09T13:35:25.706Z,100372.81
2022-09-09T13:38:17.283Z,100367.38
2022-09-09T13:41:07.869Z,100368.41
2022-09-09T13:43:58.115Z,100354.55
2022-09-09T13:46:48.302Z,100359.91
2022-09-09T13:49:36.855Z,100364.30
2022-09-09T13:52:31.986Z,100360.13
2022-09-09T13:55:22.904Z,100362.41
2022-09-09T13:58:19.504Z,100359.86
2022-09-09T14:01:08.703Z,100354.45
2022-09-09T14:03:59.475Z,100356.25
2022-09-09T14:06:49.457Z,100355.16
2022-09-09T14:09:38.623Z,100356.16
2022-09-09T14:12:27.994Z,100361.02
2022-09-09T14:15:18.595Z,100356.26
2022-09-09T14:18:10.348Z,100357.45
2022-09-09T14:20:59.263Z,100346.03
2022-09-09T14:23:51.615Z,100337.87
2022-09-09T14:26:41.398Z,100332.41
2022-09-09T14:29:30.768Z,100333.59
2022-09-09T14:32:20.162Z,100332.47
2022-09-09T14:35:12.372Z,100336.51
2022-09-09T14:38:01.541Z,100341.02
2022-09-09T14:40:50.704Z,100350.03
2022-09-09T14:43:41.319Z,100339.92
2022-09-09T14:46:30.190Z,100348.23
2022-09-09T14:49:19.426Z,100349.19
2022-09-09T14:52:09.412Z,100340.02
2022-09-09T14:54:58.780Z,100343.36
2022-09-09T14:57:47.337Z,100340.73
2022-09-09T15:00:36.877Z,100340.69
2022-09-09T15:03:26.686Z,100351.27
2022-09-09T15:06:16.259Z,100346.28
2022-09-09T15:09:05.013Z,100340.14
2022-09-09T15:11:55.507Z,100351.20
2022-09-09T15:14:43.462Z,100348.61
2022-09-09T15:17:32.918Z,100354.67
2022-09-09T15:20:21.472Z,100343.69
2022-09-09T15:23:11.661Z,100345.41
2022-09-09T15:26:00.003Z,100345.73
2022-09-09T15:28:50.323Z,100346.48
2022-09-09T15:34:40.813Z,100349.77
2022-09-09T15:37:29.736Z,100348.28
2022-09-09T15:40:18.586Z,100356.30
2022-09-09T15:43:08.102Z,100353.37
2022-09-09T15:46:06.937Z,100346.63
2022-09-09T15:48:57.224Z,100341.79
2022-09-09T15:51:47.598Z,100347.86
2022-09-09T15:54:39.267Z,100348.28
2022-09-09T15:57:28.729Z,100351.45
2022-09-09T16:00:18.863Z,100347.00
2022-09-09T16:03:08.025Z,100343.89
2022-09-09T16:05:56.985Z,100347.55
2022-09-09T16:08:47.789Z,100341.10
2022-09-09T16:11:38.595Z,100346.66
2022-09-09T16:14:28.170Z,100330.92
2022-09-09T16:17:17.331Z,100332.04
2022-09-09T16:20:09.307Z,100326.09
2022-09-09T16:22:57.916Z,100324.77
2022-09-09T16:25:53.839Z,100323.45
2022-09-09T16:28:44.234Z,100333.84
2022-09-09T16:31:34.492Z,100329.83
2022-09-09T16:34:23.999Z,100337.50
2022-09-09T16:37:12.545Z,100339.22
2022-09-09T16:40:01.123Z,100332.56
2022-09-09T16:42:49.443Z,100332.16
2022-09-09T16:45:45.568Z,100336.61
2022-09-09T16:48:34.808Z,100332.34
2022-09-09T16:51:24.496Z,100333.27
2022-09-09T16:54:14.500Z,100340.72
2022-09-09T16:57:02.964Z,100326.41
2022-09-09T16:59:54.519Z,100340.91
2022-09-09T17:02:43.665Z,100332.84
2022-09-09T17:05:33.378Z,100336.17
2022-09-09T17:08:21.961Z,100336.77
2022-09-09T17:11:15.638Z,100334.97
2022-09-09T17:14:04.391Z,100344.84
2022-09-09T17:16:53.350Z,100344.34
2022-09-09T17:19:43.128Z,100341.11
2022-09-09T17:22:33.315Z,100344.43
2022-09-09T17:25:23.096Z,100343.41
2022-09-09T17:28:12.880Z,100343.50
2022-09-09T17:31:03.321Z,100349.83
2022-09-09T17:33:53.643Z,100346.09
2022-09-09T17:36:42.215Z,100350.48
2022-09-09T17:39:30.969Z,100351.39
2022-09-09T17:42:19.728Z,100347.66
2022-09-09T17:45:09.301Z,100354.28
2022-09-09T17:47:58.262Z,100364.64
2022-09-09T17:50:47.019Z,100370.67
2022-09-09T17:53:39.661Z,100387.27
2022-09-09T17:56:30.974Z,100399.56
2022-09-09T17:59:21.065Z,100399.33
2022-09-09T18:02:12.371Z,100394.80
2022-09-09T18:05:02.089Z,100406.26
2022-09-09T18:07:52.988Z,100415.80
2022-09-09T18:10:43.700Z,100408.23
2022-09-09T18:13:32.910Z,100409.64
2022-09-09T18:16:22.472Z,100405.89
2022-09-09T18:19:13.461Z,100408.38
2022-09-09T18:22:04.421Z,100417.11
2022-09-09T18:24:54.610Z,100420.93
2022-09-09T18:27:43.781Z,100423.72
2022-09-09T18:30:32.528Z,100427.33
2022-09-09T18:33:20.875Z,100430.59
2022-09-09T18:36:12.172Z,100429.04
2022-09-09T18:39:02.919Z,100420.95
2022-09-09T18:41:53.335Z,100422.33
2022-09-09T18:44:42.784Z,100421.30
2022-09-09T18:47:31.613Z,100416.44
2022-09-09T18:50:19.956Z,100414.61
2022-09-09T18:53:09.944Z,100407.68
2022-09-09T18:56:03.820Z,100414.55
2022-09-09T18:58:55.614Z,100425.19
2022-09-09T19:01:45.041Z,100421.64
2022-09-09T19:04:34.180Z,100422.74
2022-09-09T19:07:22.730Z,100426.03
2022-09-09T19:10:11.894Z,100426.03
2022-09-09T19:13:00.855Z,100420.91
2022-09-09T19:15:50.060Z,100418.77
2022-09-09T19:18:39.185Z,100414.44
2022-09-09T19:21:33.883Z,100413.91
2022-09-09T19:24:24.527Z,100415.02
2022-09-09T19:27:13.092Z,100418.30
2022-09-09T19:30:02.400Z,100413.14
2022-09-09T19:32:54.087Z,100416.43
2022-09-09T19:35:42.572Z,100410.48
2022-09-09T19:38:32.147Z,100413.22
2022-09-09T19:41:24.561Z,100405.12
2022-09-09T19:44:15.548Z,100393.22
2022-09-09T19:47:04.556Z,100392.45
2022-09-09T19:49:53.312Z,100393.84
2022-09-09T19:52:41.664Z,100380.02
2022-09-09T19:55:30.520Z,100390.36
2022-09-09T19:58:19.912Z,100386.02
2022-09-09T20:01:10.799Z,100381.99
2022-09-09T20:04:02.369Z,100380.95
2022-09-09T20:06:51.783Z,100386.94
2022-09-09T20:09:40.127Z,100383.70
2022-09-09T20:12:28.063Z,100381.56
2022-09-09T20:15:16.633Z,100380.21
2022-09-09T20:18:06.191Z,100382.39
2022-09-09T20:21:00.068Z,100374.83
2022-09-09T20:23:50.467Z,100378.11
2022-09-09T20:26:40.362Z,100382.48
2022-09-09T20:29:30.428Z,100387.38
2022-09-09T20:32:19.389Z,100385.23
2022-09-09T20:35:09.781Z,100385.00
2022-09-09T20:38:00.174Z,100383.95
2022-09-09T20:40:50.159Z,100390.47
2022-09-09T20:43:38.709Z,100393.73
2022-09-09T20:46:31.117Z,100389.94
2022-09-09T20:49:21.339Z,100389.41
2022-09-09T20:52:11.293Z,100387.27
2022-09-09T20:55:00.285Z,100388.09
2022-09-09T20:57:49.448Z,100390.58
2022-09-09T21:00:38.204Z,100399.27
2022-09-09T21:03:29.808Z,100402.53
2022-09-09T21:06:18.177Z,100400.66
2022-09-09T21:09:10.801Z,100400.13
2022-09-09T21:11:59.573Z,100394.47
2022-09-09T21:14:47.924Z,100402.63
2022-09-09T21:17:37.086Z,100403.98
2022-09-09T21:20:26.046Z,100403.21
2022-09-09T21:23:16.540Z,100388.60
2022-09-09T21:26:07.242Z,100387.54
2022-09-09T21:28:56.407Z,100385.39
2022-09-09T21:31:45.211Z,100388.12
2022-09-09T21:34:35.352Z,100388.94
2022-09-09T21:37:23.699Z,100385.45
2022-09-09T21:40:13.102Z,100388.16
2022-09-09T21:43:03.628Z,100387.09
2022-09-09T21:45:53.238Z,100389.81
2022-09-09T21:48:42.208Z,100394.70
2022-09-09T21:51:31.569Z,100393.64
2022-09-09T21:54:20.325Z,100394.73
2022-09-09T21:57:09.490Z,100393.66
2022-09-09T21:59:58.454Z,100388.27
2022-09-09T22:02:47.242Z,100383.66
2022-09-09T22:05:41.382Z,100382.59
2022-09-09T22:08:30.740Z,100380.72
2022-09-09T22:11:21.855Z,100383.97
2022-09-09T22:14:10.421Z,100388.02
2022-09-09T22:16:59.378Z,100369.63
2022-09-09T22:19:48.142Z,100376.66
2022-09-09T22:22:37.504Z,100372.63
2022-09-09T22:25:26.053Z,100365.05
2022-09-09T22:28:16.040Z,100362.07
2022-09-09T22:31:06.329Z,100361.82
2022-09-09T22:33:55.597Z,100366.37
2022-09-09T22:36:44.363Z,100363.42
2022-09-09T22:39:33.363Z,100368.55
2022-09-09T22:42:22.200Z,100352.06
2022-09-09T22:45:12.465Z,100345.05
2022-09-09T22:48:01.421Z,100343.14
2022-09-09T22:50:51.004Z,100344.50
2022-09-09T22:53:41.824Z,100341.80
2022-09-09T22:56:31.175Z,100340.17
2022-09-09T22:59:20.536Z,100334.77
2022-09-09T23:02:09.705Z,100330.95
2022-09-09T23:04:59.076Z,100341.51
2022-09-09T23:07:47.830Z,100344.20
2022-09-09T23:10:42.663Z,100343.12
2022-09-09T23:13:32.670Z,100342.28
2022-09-09T23:16:24.343Z,100341.48
2022-09-09T23:19:16.127Z,100337.95
2022-09-09T23:22:06.467Z,100329.83
2022-09-09T23:24:55.309Z,100333.01
2022-09-09T23:27:43.661Z,100332.19
2022-09-09T23:30:32.825Z,100336.21
2022-09-09T23:33:21.117Z,100336.20
2022-09-09T23:36:14.051Z,100336.70
2022-09-09T23:39:04.410Z,100331.04
2022-09-09T23:41:53.171Z,100331.56
2022-09-09T23:44:42.535Z,100342.61
2022-09-09T23:47:30.880Z,100338.81
2022-09-09T23:50:20.663Z,100327.75
2022-09-09T23:53:10.443Z,100322.05
2022-09-09T23:55:58.777Z,100322.58
2022-09-09T23:58:48.155Z,100333.89
